createdAt,value
2019-05-28T00:00:01.939Z,29.00
2019-05-28T00:04:57.507Z,27.75
2019-05-28T00:10:06.860Z,25.12
2019-05-28T00:15:16.172Z,29.00
2019-05-28T00:20:23.514Z,30.00
2019-05-28T00:25:29.404Z,21.00
2019-05-28T00:30:35.343Z,26.37
2019-05-28T00:35:39.991Z,30.00
2019-05-28T00:40:45.721Z,27.00
2019-05-28T00:45:54.620Z,25.25
2019-05-28T00:50:59.497Z,25.25
2019-05-28T00:56:08.743Z,29.12
2019-05-28T01:01:13.288Z,32.00
2019-05-28T01:06:19.784Z,29.63
2019-05-28T01:11:28.186Z,28.43
2019-05-28T01:16:37.241Z,26.62
2019-05-28T01:21:44.756Z,30.00
2019-05-28T01:26:53.182Z,26.00
2019-05-28T01:31:58.012Z,28.00
2019-05-28T01:37:02.176Z,30.00
2019-05-28T01:42:06.376Z,30.25
2019-05-28T01:47:10.626Z,31.00
2019-05-28T01:52:17.304Z,31.00
2019-05-28T01:57:25.675Z,30.00
2019-05-28T02:02:33.508Z,30.12
2019-05-28T02:07:41.952Z,30.37
2019-05-28T02:12:47.679Z,32.00
2019-05-28T02:17:55.778Z,31.00
2019-05-28T02:23:04.105Z,32.00
2019-05-28T02:28:11.263Z,31.12
2019-05-28T02:33:18.545Z,35.63
2019-05-28T02:38:28.988Z,29.12
2019-05-28T02:43:36.222Z,33.00
2019-05-28T02:48:45.039Z,29.12
2019-05-28T02:53:54.072Z,25.50
2019-05-28T02:58:59.677Z,29.50
2019-05-28T03:04:03.623Z,29.00
2019-05-28T03:09:10.551Z,30.00
2019-05-28T03:14:19.637Z,30.00
2019-05-28T03:19:29.858Z,26.00
2019-05-28T03:24:34.914Z,25.25
2019-05-28T03:29:39.706Z,29.00
2019-05-28T03:34:43.519Z,28.25
2019-05-28T03:39:53.297Z,28.78
2019-05-28T03:45:02.403Z,30.25
2019-05-28T03:50:06.612Z,30.00
2019-05-28T03:55:14.983Z,30.00
2019-05-28T04:00:22.059Z,30.00
2019-05-28T04:05:29.569Z,26.25
2019-05-28T04:10:41.300Z,32.00
2019-05-28T04:15:50.295Z,31.37
2019-05-28T04:20:59.992Z,33.00
2019-05-28T04:26:08.974Z,30.88
2019-05-28T04:31:16.475Z,26.25
2019-05-28T04:36:21.319Z,30.50
2019-05-28T04:41:25.438Z,26.00
2019-05-28T04:46:29.561Z,34.75
2019-05-28T04:51:35.198Z,26.00
2019-05-28T04:56:40.186Z,25.71
2019-05-28T05:01:45.260Z,24.00
2019-05-28T05:06:51.266Z,31.62
2019-05-28T05:11:58.188Z,25.71
2019-05-28T05:17:01.034Z,21.67
2019-05-28T05:22:06.515Z,19.00
2019-05-28T05:27:11.891Z,22.37
2019-05-28T05:32:17.238Z,22.00
2019-05-28T05:37:21.770Z,19.00
2019-05-28T05:42:27.347Z,31.12
2019-05-28T05:47:34.317Z,21.12
2019-05-28T05:52:37.798Z,19.75
2019-05-28T05:57:40.698Z,17.00
2019-05-28T06:02:46.785Z,13.71
2019-05-28T06:07:51.779Z,15.00
2019-05-28T06:12:55.203Z,15.33
2019-05-28T06:18:01.273Z,13.43
2019-05-28T06:23:08.113Z,12.71
2019-05-28T06:28:15.028Z,25.14
2019-05-28T06:33:20.194Z,10.14
2019-05-28T06:38:23.803Z,19.75
2019-05-28T06:43:29.952Z,9.43
2019-05-28T06:48:33.429Z,19.00
2019-05-28T06:53:36.519Z,18.67
2019-05-28T06:58:40.594Z,23.00
2019-05-28T07:03:44.755Z,14.60
2019-05-28T07:08:50.239Z,8.67
2019-05-28T07:13:57.453Z,15.50
2019-05-28T07:19:02.256Z,15.29
2019-05-28T07:24:07.535Z,19.00
2019-05-28T07:29:11.278Z,24.00
2019-05-28T07:34:29.489Z,15.00
2019-05-28T07:39:22.116Z,16.43
2019-05-28T07:44:27.492Z,14.29
2019-05-28T07:49:32.218Z,12.00
2019-05-28T07:54:39.506Z,20.50
2019-05-28T07:59:43.357Z,11.67
2019-05-28T08:04:48.967Z,16.87
2019-05-28T08:09:55.929Z,17.00
2019-05-28T08:15:02.097Z,13.00
2019-05-28T08:20:07.260Z,12.29
2019-05-28T08:25:27.249Z,26.29
2019-05-28T08:30:20.819Z,17.43
2019-05-28T08:35:29.449Z,15.40
2019-05-28T08:40:35.989Z,19.71
2019-05-28T08:45:42.643Z,14.67
2019-05-28T08:50:50.197Z,15.00
2019-05-28T08:55:58.757Z,11.14
2019-05-28T09:01:04.340Z,14.71
2019-05-28T09:06:10.307Z,12.67
2019-05-28T09:11:14.312Z,22.00
2019-05-28T09:16:20.351Z,14.29
2019-05-28T09:21:28.251Z,16.20
2019-05-28T09:26:31.902Z,17.50
2019-05-28T09:31:37.231Z,21.57
2019-05-28T09:36:41.703Z,16.00
2019-05-28T09:41:48.583Z,18.00
2019-05-28T09:46:53.854Z,17.00
2019-05-28T09:51:57.330Z,15.25
2019-05-28T09:57:03.748Z,13.71
2019-05-28T10:02:09.011Z,18.00
2019-05-28T10:07:15.069Z,15.17
2019-05-28T10:12:18.695Z,15.00
2019-05-28T10:17:22.244Z,17.00
2019-05-28T10:22:28.414Z,23.00
2019-05-28T10:27:34.630Z,14.57
2019-05-28T10:32:44.034Z,19.25
2019-05-28T10:37:49.251Z,20.29
2019-05-28T10:42:53.787Z,19.86
2019-05-28T10:47:58.554Z,24.29
2019-05-28T10:53:04.041Z,16.71
2019-05-28T10:58:13.428Z,23.62
2019-05-28T11:03:18.825Z,16.14
2019-05-28T11:08:26.696Z,14.00
2019-05-28T11:13:32.237Z,11.86
2019-05-28T11:18:36.931Z,12.71
2019-05-28T11:23:41.667Z,16.14
2019-05-28T11:28:49.662Z,15.00
2019-05-28T11:33:56.931Z,10.67
2019-05-28T11:39:00.651Z,11.00
2019-05-28T11:44:04.489Z,8.33
2019-05-28T11:49:08.338Z,10.17
2019-05-28T11:54:12.709Z,10.17
2019-05-28T11:59:20.541Z,12.00
2019-05-28T12:04:24.385Z,8.00
2019-05-28T12:09:29.892Z,11.29
2019-05-28T12:14:35.196Z,12.14
2019-05-28T12:19:42.422Z,9.67
2019-05-28T12:24:50.197Z,10.67
2019-05-28T12:29:54.712Z,10.67
2019-05-28T12:34:59.287Z,8.17
2019-05-28T12:40:04.711Z,13.57
2019-05-28T12:45:11.499Z,25.25
2019-05-28T12:50:20.765Z,14.71
2019-05-28T12:55:25.311Z,15.00
2019-05-28T13:00:30.960Z,12.17
2019-05-28T13:05:35.814Z,15.29
2019-05-28T13:10:45.243Z,17.00
2019-05-28T13:15:48.951Z,21.00
2019-05-28T13:20:53.590Z,9.33
2019-05-28T13:25:58.285Z,10.00
2019-05-28T13:31:02.123Z,15.80
2019-05-28T13:36:06.754Z,9.67
2019-05-28T13:41:10.461Z,6.67
2019-05-28T13:46:16.767Z,26.50
2019-05-28T13:51:20.883Z,14.20
2019-05-28T13:56:25.064Z,10.00
2019-05-28T14:01:29.185Z,11.40
2019-05-28T14:06:36.704Z,9.67
2019-05-28T14:11:42.382Z,7.00
2019-05-28T14:16:46.237Z,5.00
2019-05-28T14:21:50.139Z,8.00
2019-05-28T14:26:54.086Z,17.00
2019-05-28T14:31:58.056Z,5.00
2019-05-28T14:37:05.506Z,4.22
2019-05-28T14:42:11.947Z,5.00
2019-05-28T14:47:15.887Z,6.60
2019-05-28T14:52:23.944Z,14.29
2019-05-28T14:57:28.863Z,28.29
2019-05-28T15:02:33.783Z,14.17
2019-05-28T15:07:37.598Z,5.00
2019-05-28T15:12:44.073Z,6.00
2019-05-28T15:17:47.712Z,9.00
2019-05-28T15:22:55.080Z,10.17
2019-05-28T15:27:59.019Z,10.50
2019-05-28T15:33:03.872Z,14.86
2019-05-28T15:38:07.916Z,7.00
2019-05-28T15:43:12.105Z,10.00
2019-05-28T15:48:17.021Z,8.00
2019-05-28T15:53:20.963Z,8.00
2019-05-28T15:58:36.830Z,8.33
2019-05-28T16:03:44.185Z,11.67
2019-05-28T16:08:48.927Z,11.57
2019-05-28T16:13:52.837Z,10.67
2019-05-28T16:18:56.668Z,8.67
2019-05-28T16:24:00.715Z,8.00
2019-05-28T16:29:04.102Z,7.00
2019-05-28T16:34:10.686Z,7.83
2019-05-28T16:39:14.599Z,8.00
2019-05-28T16:44:17.730Z,5.33
2019-05-28T16:49:22.554Z,11.33
2019-05-28T16:54:26.634Z,7.33
2019-05-28T16:59:29.880Z,5.67
2019-05-28T17:04:33.923Z,10.67
2019-05-28T17:09:39.470Z,12.57
2019-05-28T17:14:43.250Z,10.17
2019-05-28T17:19:47.066Z,7.67
2019-05-28T17:24:54.293Z,10.83
2019-05-28T17:30:17.297Z,13.60
2019-05-28T17:35:10.223Z,8.40
2019-05-28T17:40:14.336Z,7.00
2019-05-28T17:45:19.660Z,10.33
2019-05-28T17:50:23.857Z,8.00
2019-05-28T17:55:27.888Z,9.67
2019-05-28T18:00:31.231Z,8.00
2019-05-28T18:05:35.411Z,8.67
2019-05-28T18:10:43.220Z,10.33
2019-05-28T18:15:50.618Z,10.17
2019-05-28T18:20:54.020Z,6.00
2019-05-28T18:26:00.709Z,9.33
2019-05-28T18:31:04.817Z,6.67
2019-05-28T18:36:08.222Z,6.00
2019-05-28T18:41:21.420Z,5.20
2019-05-28T18:46:26.868Z,3.40
2019-05-28T18:51:30.589Z,6.00
2019-05-28T18:56:34.262Z,8.17
2019-05-28T19:01:39.728Z,11.00
2019-05-28T19:06:44.315Z,7.50
2019-05-28T19:11:48.946Z,10.43
2019-05-28T19:16:52.831Z,7.33
2019-05-28T19:21:57.482Z,15.71
2019-05-28T19:27:01.942Z,9.00
2019-05-28T19:32:09.965Z,12.00
2019-05-28T19:37:15.805Z,12.71
2019-05-28T19:42:21.403Z,12.29
2019-05-28T19:47:29.614Z,14.86
2019-05-28T19:52:33.309Z,16.29
2019-05-28T19:57:38.025Z,17.00
2019-05-28T20:02:43.615Z,14.14
2019-05-28T20:07:51.400Z,11.57
2019-05-28T20:12:58.736Z,15.14
2019-05-28T20:18:02.528Z,9.67
2019-05-28T20:23:08.030Z,12.71
2019-05-28T20:28:13.022Z,12.17
2019-05-28T20:33:21.822Z,11.18
2019-05-28T20:38:27.434Z,12.14
2019-05-28T20:43:34.783Z,11.00
2019-05-28T20:48:42.725Z,13.00
2019-05-28T20:53:48.416Z,13.00
2019-05-28T20:58:55.942Z,15.71
2019-05-28T21:03:59.947Z,16.00
2019-05-28T21:09:05.743Z,18.71
2019-05-28T21:14:11.347Z,19.00
2019-05-28T21:23:50.301Z,21.67
2019-05-28T21:28:56.558Z,13.71
2019-05-28T21:34:01.515Z,18.50
2019-05-28T21:39:07.118Z,15.00
2019-05-28T21:44:14.111Z,19.25
2019-05-28T21:49:23.627Z,27.00
2019-05-28T21:54:28.851Z,22.37
2019-05-28T21:59:31.775Z,20.33
2019-05-28T22:04:37.261Z,19.71
2019-05-28T22:09:43.279Z,23.86
2019-05-28T22:14:46.905Z,23.25
2019-05-28T22:19:52.314Z,22.43
2019-05-28T22:24:58.573Z,20.00
2019-05-28T22:30:07.528Z,25.00
2019-05-28T22:35:14.793Z,21.67
2019-05-28T22:40:19.798Z,23.25
2019-05-28T22:45:23.834Z,25.20
2019-05-28T22:50:27.739Z,21.00
2019-05-28T22:55:33.394Z,22.86
2019-05-28T23:00:40.667Z,21.75
2019-05-28T23:05:45.214Z,24.00
2019-05-28T23:10:51.524Z,23.25
2019-05-28T23:15:55.547Z,21.33
2019-05-28T23:21:01.135Z,18.00
2019-05-28T23:26:09.362Z,22.25
2019-05-28T23:31:17.458Z,19.25
2019-05-28T23:36:22.914Z,19.86
2019-05-28T23:41:29.369Z,34.38
2019-05-28T23:46:35.094Z,22.00
2019-05-28T23:51:40.839Z,22.86
2019-05-28T23:56:46.387Z,23.50
